sensor_id;sensor_type;location;lat;lon;timestamp;pressure;altitude;pressure_sealevel;temperature;humidity
44349;BME280;30068;50.986;4.564;2023-03-14T00:01:28;99145.72;;;17.14;nan
44349;BME280;30068;50.986;4.564;2023-03-14T00:03:54;99137.03;;;17.12;nan
44349;BME280;30068;50.986;4.564;2023-03-14T00:06:19;99138.91;;;17.05;nan
44349;BME280;30068;50.986;4.564;2023-03-14T00:08:45;99142.16;;;17.33;nan
44349;BME280;30068;50.986;4.564;2023-03-14T00:11:15;99145.50;;;17.09;nan
44349;BME280;30068;50.986;4.564;2023-03-14T00:13:40;99143.25;;;17.06;nan
44349;BME280;30068;50.986;4.564;2023-03-14T00:16:10;99149.88;;;17.10;nan
44349;BME280;30068;50.986;4.564;2023-03-14T00:18:36;99161.06;;;17.07;nan
44349;BME280;30068;50.986;4.564;2023-03-14T00:21:01;99161.28;;;16.98;nan
44349;BME280;30068;50.986;4.564;2023-03-14T00:23:28;99177.03;;;17.02;nan
44349;BME280;30068;50.986;4.564;2023-03-14T00:25:53;99177.03;;;17.02;nan
44349;BME280;30068;50.986;4.564;2023-03-14T00:28:18;99167.28;;;17.01;nan
44349;BME280;30068;50.986;4.564;2023-03-14T00:30:43;99166.25;;;17.02;nan
44349;BME280;30068;50.986;4.564;2023-03-14T00:33:09;99169.97;;;17.01;nan
44349;BME280;30068;50.986;4.564;2023-03-14T00:35:34;99164.59;;;17.01;nan
44349;BME280;30068;50.986;4.564;2023-03-14T00:37:59;99168.56;;;16.98;nan
44349;BME280;30068;50.986;4.564;2023-03-14T00:40:24;99163.75;;;16.93;nan
44349;BME280;30068;50.986;4.564;2023-03-14T00:42:49;99163.16;;;16.91;nan
44349;BME280;30068;50.986;4.564;2023-03-14T00:45:15;99156.72;;;16.92;nan
44349;BME280;30068;50.986;4.564;2023-03-14T00:47:40;99156.72;;;16.92;nan
44349;BME280;30068;50.986;4.564;2023-03-14T00:50:05;99161.69;;;16.95;nan
44349;BME280;30068;50.986;4.564;2023-03-14T00:52:31;99158.81;;;16.90;nan
44349;BME280;30068;50.986;4.564;2023-03-14T00:54:56;99155.09;;;16.91;nan
44349;BME280;30068;50.986;4.564;2023-03-14T00:57:21;99155.09;;;16.91;nan
44349;BME280;30068;50.986;4.564;2023-03-14T00:59:46;99161.69;;;16.89;nan
44349;BME280;30068;50.986;4.564;2023-03-14T01:02:11;99155.09;;;16.91;nan
44349;BME280;30068;50.986;4.564;2023-03-14T01:04:37;99153.00;;;16.93;nan
44349;BME280;30068;50.986;4.564;2023-03-14T01:07:04;99150.53;;;16.85;nan
44349;BME280;30068;50.986;4.564;2023-03-14T01:09:29;99143.47;;;16.91;nan
44349;BME280;30068;50.986;4.564;2023-03-14T01:11:54;99155.09;;;16.91;nan
44349;BME280;30068;50.986;4.564;2023-03-14T01:14:20;99144.72;;;16.88;nan
44349;BME280;30068;50.986;4.564;2023-03-14T01:16:45;99137.25;;;16.90;nan
44349;BME280;30068;50.986;4.564;2023-03-14T01:19:10;99138.28;;;16.89;nan
44349;BME280;30068;50.986;4.564;2023-03-14T01:21:35;99123.38;;;16.80;nan
44349;BME280;30068;50.986;4.564;2023-03-14T01:24:01;99125.03;;;16.88;nan
44349;BME280;30068;50.986;4.564;2023-03-14T01:26:29;99115.25;;;16.93;nan
44349;BME280;30068;50.986;4.564;2023-03-14T01:28:54;99113.84;;;16.71;nan
44349;BME280;30068;50.986;4.564;2023-03-14T01:31:20;99117.78;;;16.75;nan
44349;BME280;30068;50.986;4.564;2023-03-14T01:33:45;99107.63;;;16.84;nan
44349;BME280;30068;50.986;4.564;2023-03-14T01:36:11;99109.28;;;16.78;nan
44349;BME280;30068;50.986;4.564;2023-03-14T01:38:37;99112.38;;;16.88;nan
44349;BME280;30068;50.986;4.564;2023-03-14T01:41:03;99104.13;;;16.77;nan
44349;BME280;30068;50.986;4.564;2023-03-14T01:43:29;99102.25;;;16.77;nan
44349;BME280;30068;50.986;4.564;2023-03-14T01:48:31;99087.75;;;16.85;nan
44349;BME280;30068;50.986;4.564;2023-03-14T01:50:58;99094.56;;;16.74;nan
44349;BME280;30068;50.986;4.564;2023-03-14T01:53:24;99095.38;;;16.81;nan
44349;BME280;30068;50.986;4.564;2023-03-14T01:55:50;99098.28;;;16.73;nan
44349;BME280;30068;50.986;4.564;2023-03-14T01:58:17;99093.94;;;16.79;nan
44349;BME280;30068;50.986;4.564;2023-03-14T02:00:45;99098.28;;;16.80;nan
44349;BME280;30068;50.986;4.564;2023-03-14T02:03:11;99087.94;;;16.77;nan
44349;BME280;30068;50.986;4.564;2023-03-14T02:05:39;99090.22;;;16.73;nan
44349;BME280;30068;50.986;4.564;2023-03-14T02:08:07;99080.91;;;16.69;nan
44349;BME280;30068;50.986;4.564;2023-03-14T02:10:35;99075.72;;;16.74;nan
44349;BME280;30068;50.986;4.564;2023-03-14T02:13:02;99076.75;;;16.80;nan
44349;BME280;30068;50.986;4.564;2023-03-14T02:15:28;99061.00;;;16.77;nan
44349;BME280;30068;50.986;4.564;2023-03-14T02:17:53;99058.09;;;16.65;nan
44349;BME280;30068;50.986;4.564;2023-03-14T02:22:44;99067.44;;;16.76;nan
44349;BME280;30068;50.986;4.564;2023-03-14T02:25:16;99067.25;;;16.71;nan
44349;BME280;30068;50.986;4.564;2023-03-14T02:27:42;99065.38;;;16.65;nan
44349;BME280;30068;50.986;4.564;2023-03-14T02:30:14;99073.88;;;16.68;nan
44349;BME280;30068;50.986;4.564;2023-03-14T02:32:41;99069.28;;;16.75;nan
44349;BME280;30068;50.986;4.564;2023-03-14T02:35:09;99071.78;;;16.77;nan
44349;BME280;30068;50.986;4.564;2023-03-14T02:37:37;99072.41;;;16.72;nan
44349;BME280;30068;50.986;4.564;2023-03-14T02:40:04;99072.19;;;16.67;nan
44349;BME280;30068;50.986;4.564;2023-03-14T02:42:30;99078.63;;;16.73;nan
44349;BME280;30068;50.986;4.564;2023-03-14T02:47:32;99073.22;;;16.66;nan
44349;BME280;30068;50.986;4.564;2023-03-14T02:49:59;99070.13;;;16.69;nan
44349;BME280;30068;50.986;4.564;2023-03-14T02:52:26;99077.19;;;16.64;nan
44349;BME280;30068;50.986;4.564;2023-03-14T02:54:51;99074.25;;;16.58;nan
44349;BME280;30068;50.986;4.564;2023-03-14T02:57:17;99076.56;;;16.62;nan
44349;BME280;30068;50.986;4.564;2023-03-14T02:59:42;99070.50;;;16.59;nan
44349;BME280;30068;50.986;4.564;2023-03-14T03:02:07;99072.38;;;16.59;nan
44349;BME280;30068;50.986;4.564;2023-03-14T03:04:32;99066.41;;;16.50;nan
44349;BME280;30068;50.986;4.564;2023-03-14T03:06:57;99066.41;;;16.57;nan
44349;BME280;30068;50.986;4.564;2023-03-14T03:09:23;99067.66;;;16.61;nan
44349;BME280;30068;50.986;4.564;2023-03-14T03:11:48;99059.94;;;16.51;nan
44349;BME280;30068;50.986;4.564;2023-03-14T03:14:13;99059.34;;;16.43;nan
44349;BME280;30068;50.986;4.564;2023-03-14T03:16:38;99057.69;;;16.42;nan
44349;BME280;30068;50.986;4.564;2023-03-14T03:19:03;99052.72;;;16.39;nan
44349;BME280;30068;50.986;4.564;2023-03-14T03:21:29;99050.00;;;16.45;nan
44349;BME280;30068;50.986;4.564;2023-03-14T03:23:54;99041.53;;;16.42;nan
44349;BME280;30068;50.986;4.564;2023-03-14T03:26:19;99046.50;;;16.45;nan
44349;BME280;30068;50.986;4.564;2023-03-14T03:28:44;99042.56;;;16.41;nan
44349;BME280;30068;50.986;4.564;2023-03-14T03:31:10;99044.63;;;16.45;nan
44349;BME280;30068;50.986;4.564;2023-03-14T03:33:36;99038.41;;;16.38;nan
44349;BME280;30068;50.986;4.564;2023-03-14T03:36:01;99039.47;;;16.37;nan
44349;BME280;30068;50.986;4.564;2023-03-14T03:38:27;99039.88;;;16.34;nan
44349;BME280;30068;50.986;4.564;2023-03-14T03:40:52;99043.81;;;16.32;nan
44349;BME280;30068;50.986;4.564;2023-03-14T03:43:17;99037.00;;;16.36;nan
44349;BME280;30068;50.986;4.564;2023-03-14T03:45:43;99041.34;;;16.37;nan
44349;BME280;30068;50.986;4.564;2023-03-14T03:48:08;99035.72;;;16.45;nan
44349;BME280;30068;50.986;4.564;2023-03-14T03:50:33;99045.06;;;16.55;nan
44349;BME280;30068;50.986;4.564;2023-03-14T03:52:59;99039.69;;;16.42;nan
44349;BME280;30068;50.986;4.564;2023-03-14T03:55:24;99035.31;;;16.48;nan
44349;BME280;30068;50.986;4.564;2023-03-14T03:57:50;99029.94;;;16.35;nan
44349;BME280;30068;50.986;4.564;2023-03-14T04:00:15;99023.72;;;16.41;nan
44349;BME280;30068;50.986;4.564;2023-03-14T04:02:41;99021.22;;;16.39;nan
44349;BME280;30068;50.986;4.564;2023-03-14T04:05:06;99019.78;;;16.50;nan
44349;BME280;30068;50.986;4.564;2023-03-14T04:07:32;99023.72;;;16.47;nan
44349;BME280;30068;50.986;4.564;2023-03-14T04:09:57;99026.22;;;16.49;nan
44349;BME280;30068;50.986;4.564;2023-03-14T04:12:22;99030.34;;;16.45;nan
44349;BME280;30068;50.986;4.564;2023-03-14T04:14:48;99029.94;;;16.35;nan
44349;BME280;30068;50.986;4.564;2023-03-14T04:17:13;99032.00;;;16.33;nan
44349;BME280;30068;50.986;4.564;2023-03-14T04:19:38;99035.72;;;16.32;nan
44349;BME280;30068;50.986;4.564;2023-03-14T04:22:03;99036.56;;;16.32;nan
44349;BME280;30068;50.986;4.564;2023-03-14T04:24:28;99027.66;;;16.38;nan
44349;BME280;30068;50.986;4.564;2023-03-14T04:26:54;99020.84;;;16.36;nan
44349;BME280;30068;50.986;4.564;2023-03-14T04:29:19;99026.22;;;16.36;nan
44349;BME280;30068;50.986;4.564;2023-03-14T04:31:44;99023.53;;;16.29;nan
44349;BME280;30068;50.986;4.564;2023-03-14T04:34:09;99027.88;;;16.43;nan
44349;BME280;30068;50.986;4.564;2023-03-14T04:36:34;99029.94;;;16.35;nan
44349;BME280;30068;50.986;4.564;2023-03-14T04:39:01;99022.91;;;16.27;nan
44349;BME280;30068;50.986;4.564;2023-03-14T04:41:26;99014.63;;;16.42;nan
44349;BME280;30068;50.986;4.564;2023-03-14T04:43:52;99015.84;;;16.33;nan
44349;BME280;30068;50.986;4.564;2023-03-14T04:46:17;99019.38;;;16.40;nan
44349;BME280;30068;50.986;4.564;2023-03-14T04:48:42;99019.19;;;16.41;nan
44349;BME280;30068;50.986;4.564;2023-03-14T04:51:07;99030.34;;;16.32;nan
44349;BME280;30068;50.986;4.564;2023-03-14T04:53:32;99025.19;;;16.37;nan
44349;BME280;30068;50.986;4.564;2023-03-14T04:55:59;99027.25;;;16.35;nan
44349;BME280;30068;50.986;4.564;2023-03-14T04:58:24;99023.09;;;16.39;nan
44349;BME280;30068;50.986;4.564;2023-03-14T05:00:49;99021.25;;;16.26;nan
44349;BME280;30068;50.986;4.564;2023-03-14T05:03:15;99020.00;;;16.42;nan
44349;BME280;30068;50.986;4.564;2023-03-14T05:05:41;99016.91;;;16.71;nan
44349;BME280;30068;50.986;4.564;2023-03-14T05:08:06;99005.28;;;16.77;nan
44349;BME280;30068;50.986;4.564;2023-03-14T05:10:31;98997.41;;;17.27;nan
44349;BME280;30068;50.986;4.564;2023-03-14T05:12:57;98991.63;;;17.23;nan
44349;BME280;30068;50.986;4.564;2023-03-14T05:15:22;98995.38;;;17.22;nan
44349;BME280;30068;50.986;4.564;2023-03-14T05:17:47;98996.03;;;17.56;nan
44349;BME280;30068;50.986;4.564;2023-03-14T05:20:14;98989.34;;;17.71;nan
44349;BME280;30068;50.986;4.564;2023-03-14T05:22:39;98995.09;;;17.75;nan
44349;BME280;30068;50.986;4.564;2023-03-14T05:25:05;98990.84;;;17.54;nan
44349;BME280;30068;50.986;4.564;2023-03-14T05:27:31;98995.03;;;17.50;nan
44349;BME280;30068;50.986;4.564;2023-03-14T05:29:56;98993.84;;;17.77;nan
44349;BME280;30068;50.986;4.564;2023-03-14T05:32:21;98987.28;;;17.98;nan
44349;BME280;30068;50.986;4.564;2023-03-14T05:34:46;98993.50;;;17.99;nan
44349;BME280;30068;50.986;4.564;2023-03-14T05:37:12;98990.13;;;17.79;nan
44349;BME280;30068;50.986;4.564;2023-03-14T05:39:37;98995.50;;;17.79;nan
44349;BME280;30068;50.986;4.564;2023-03-14T05:42:02;98993.50;;;17.99;nan
44349;BME280;30068;50.986;4.564;2023-03-14T05:44:27;98998.38;;;18.15;nan
44349;BME280;30068;50.986;4.564;2023-03-14T05:46:53;99002.75;;;18.09;nan
44349;BME280;30068;50.986;4.564;2023-03-14T05:49:18;99005.53;;;17.96;nan
44349;BME280;30068;50.986;4.564;2023-03-14T05:51:43;99006.44;;;17.90;nan
44349;BME280;30068;50.986;4.564;2023-03-14T05:54:08;99000.06;;;18.09;nan
44349;BME280;30068;50.986;4.564;2023-03-14T05:56:33;99005.22;;;18.36;nan
44349;BME280;30068;50.986;4.564;2023-03-14T05:58:59;99002.53;;;18.36;nan
44349;BME280;30068;50.986;4.564;2023-03-14T06:01:27;99006.13;;;18.05;nan
44349;BME280;30068;50.986;4.564;2023-03-14T06:03:52;99004.69;;;18.27;nan
44349;BME280;30068;50.986;4.564;2023-03-14T06:06:18;99007.66;;;18.19;nan
44349;BME280;30068;50.986;4.564;2023-03-14T06:08:44;99003.03;;;18.26;nan
44349;BME280;30068;50.986;4.564;2023-03-14T06:11:09;99014.16;;;18.36;nan
44349;BME280;30068;50.986;4.564;2023-03-14T06:13:34;99006.41;;;18.46;nan
44349;BME280;30068;50.986;4.564;2023-03-14T06:15:59;99012.69;;;18.40;nan
44349;BME280;30068;50.986;4.564;2023-03-14T06:18:25;99014.13;;;18.18;nan
44349;BME280;30068;50.986;4.564;2023-03-14T06:20:53;99019.41;;;18.06;nan
44349;BME280;30068;50.986;4.564;2023-03-14T06:23:18;99016.44;;;18.14;nan
44349;BME280;30068;50.986;4.564;2023-03-14T06:25:43;99021.47;;;18.29;nan
44349;BME280;30068;50.986;4.564;2023-03-14T06:28:08;99026.97;;;18.47;nan
44349;BME280;30068;50.986;4.564;2023-03-14T06:30:34;99029.09;;;18.64;nan
44349;BME280;30068;50.986;4.564;2023-03-14T06:32:59;99012.63;;;18.22;nan
44349;BME280;30068;50.986;4.564;2023-03-14T06:35:24;99030.16;;;18.13;nan
44349;BME280;30068;50.986;4.564;2023-03-14T06:37:50;99024.03;;;18.24;nan
44349;BME280;30068;50.986;4.564;2023-03-14T06:40:15;99034.88;;;18.42;nan
44349;BME280;30068;50.986;4.564;2023-03-14T06:42:46;99039.41;;;18.48;nan
44349;BME280;30068;50.986;4.564;2023-03-14T06:45:11;99046.41;;;18.56;nan
44349;BME280;30068;50.986;4.564;2023-03-14T06:47:36;99050.06;;;18.68;nan
44349;BME280;30068;50.986;4.564;2023-03-14T06:50:04;99059.59;;;18.71;nan
44349;BME280;30068;50.986;4.564;2023-03-14T06:52:29;99070.28;;;18.34;nan
44349;BME280;30068;50.986;4.564;2023-03-14T06:54:55;99093.59;;;18.22;nan
44349;BME280;30068;50.986;4.564;2023-03-14T06:57:20;99135.69;;;18.05;nan
44349;BME280;30068;50.986;4.564;2023-03-14T06:59:45;99153.88;;;18.16;nan
44349;BME280;30068;50.986;4.564;2023-03-14T07:02:11;99175.75;;;18.39;nan
44349;BME280;30068;50.986;4.564;2023-03-14T07:04:37;99187.84;;;18.30;nan
44349;BME280;30068;50.986;4.564;2023-03-14T07:07:02;99210.38;;;18.11;nan
44349;BME280;30068;50.986;4.564;2023-03-14T07:09:27;99215.84;;;17.98;nan
44349;BME280;30068;50.986;4.564;2023-03-14T07:11:53;99233.31;;;18.40;nan
44349;BME280;30068;50.986;4.564;2023-03-14T07:14:18;99240.38;;;17.83;nan
44349;BME280;30068;50.986;4.564;2023-03-14T07:16:43;99265.09;;;17.87;nan
44349;BME280;30068;50.986;4.564;2023-03-14T07:19:10;99265.69;;;17.89;nan
44349;BME280;30068;50.986;4.564;2023-03-14T07:21:35;99274.84;;;17.74;nan
44349;BME280;30068;50.986;4.564;2023-03-14T07:24:01;99302.88;;;17.87;nan
44349;BME280;30068;50.986;4.564;2023-03-14T07:26:26;99315.06;;;17.96;nan
44349;BME280;30068;50.986;4.564;2023-03-14T07:28:51;99310.16;;;17.73;nan
44349;BME280;30068;50.986;4.564;2023-03-14T07:31:17;99325.06;;;17.75;nan
44349;BME280;30068;50.986;4.564;2023-03-14T07:33:42;99340.41;;;17.55;nan
44349;BME280;30068;50.986;4.564;2023-03-14T07:36:07;99349.53;;;17.41;nan
44349;BME280;30068;50.986;4.564;2023-03-14T07:38:33;99359.72;;;17.32;nan
44349;BME280;30068;50.986;4.564;2023-03-14T07:41:02;99367.38;;;17.29;nan
44349;BME280;30068;50.986;4.564;2023-03-14T07:43:28;99374.44;;;17.36;nan
44349;BME280;30068;50.986;4.564;2023-03-14T07:45:53;99391.63;;;17.29;nan
44349;BME280;30068;50.986;4.564;2023-03-14T07:48:19;99399.34;;;17.38;nan
44349;BME280;30068;50.986;4.564;2023-03-14T07:50:47;99397.63;;;17.18;nan
44349;BME280;30068;50.986;4.564;2023-03-14T07:53:13;99404.63;;;16.99;nan
44349;BME280;30068;50.986;4.564;2023-03-14T07:55:39;99411.47;;;17.02;nan
44349;BME280;30068;50.986;4.564;2023-03-14T07:58:04;99431.44;;;17.27;nan
44349;BME280;30068;50.986;4.564;2023-03-14T08:00:29;99425.19;;;17.20;nan
44349;BME280;30068;50.986;4.564;2023-03-14T08:02:54;99440.16;;;17.29;nan
44349;BME280;30068;50.986;4.564;2023-03-14T08:05:20;99451.88;;;16.95;nan
44349;BME280;30068;50.986;4.564;2023-03-14T08:07:45;99458.09;;;16.95;nan
44349;BME280;30068;50.986;4.564;2023-03-14T08:10:10;99459.75;;;16.96;nan
44349;BME280;30068;50.986;4.564;2023-03-14T08:12:35;99472.38;;;16.89;nan
44349;BME280;30068;50.986;4.564;2023-03-14T08:15:01;99478.91;;;17.15;nan
44349;BME280;30068;50.986;4.564;2023-03-14T08:17:27;99489.38;;;16.90;nan
44349;BME280;30068;50.986;4.564;2023-03-14T08:19:52;99499.81;;;17.13;nan
44349;BME280;30068;50.986;4.564;2023-03-14T08:22:17;99510.03;;;17.24;nan
44349;BME280;30068;50.986;4.564;2023-03-14T08:24:42;99516.22;;;17.11;nan
44349;BME280;30068;50.986;4.564;2023-03-14T08:27:08;99522.53;;;16.90;nan
44349;BME280;30068;50.986;4.564;2023-03-14T08:29:33;99521.81;;;16.75;nan
44349;BME280;30068;50.986;4.564;2023-03-14T08:31:58;99532.25;;;16.85;nan
44349;BME280;30068;50.986;4.564;2023-03-14T08:34:23;99546.72;;;17.18;nan
44349;BME280;30068;50.986;4.564;2023-03-14T08:36:49;99554.22;;;16.88;nan
44349;BME280;30068;50.986;4.564;2023-03-14T08:39:15;99566.97;;;16.73;nan
44349;BME280;30068;50.986;4.564;2023-03-14T08:41:40;99575.00;;;16.67;nan
44349;BME280;30068;50.986;4.564;2023-03-14T08:44:07;99571.75;;;16.71;nan
44349;BME280;30068;50.986;4.564;2023-03-14T08:46:33;99582.25;;;16.66;nan
44349;BME280;30068;50.986;4.564;2023-03-14T08:48:58;99595.41;;;16.76;nan
44349;BME280;30068;50.986;4.564;2023-03-14T08:51:23;99603.91;;;16.79;nan
44349;BME280;30068;50.986;4.564;2023-03-14T08:53:49;99602.63;;;16.75;nan
44349;BME280;30068;50.986;4.564;2023-03-14T08:56:14;99622.94;;;16.71;nan
44349;BME280;30068;50.986;4.564;2023-03-14T08:58:39;99625.41;;;16.73;nan
44349;BME280;30068;50.986;4.564;2023-03-14T09:01:07;99644.84;;;16.68;nan
44349;BME280;30068;50.986;4.564;2023-03-14T09:03:32;99650.53;;;16.58;nan
44349;BME280;30068;50.986;4.564;2023-03-14T09:06:01;99651.41;;;16.87;nan
44349;BME280;30068;50.986;4.564;2023-03-14T09:08:27;99663.94;;;16.73;nan
44349;BME280;30068;50.986;4.564;2023-03-14T09:10:52;99676.94;;;16.63;nan
44349;BME280;30068;50.986;4.564;2023-03-14T09:13:18;99680.38;;;16.57;nan
44349;BME280;30068;50.986;4.564;2023-03-14T09:15:43;99687.06;;;16.61;nan
44349;BME280;30068;50.986;4.564;2023-03-14T09:18:08;99692.34;;;16.54;nan
44349;BME280;30068;50.986;4.564;2023-03-14T09:20:33;99699.84;;;16.59;nan
44349;BME280;30068;50.986;4.564;2023-03-14T09:22:59;99709.50;;;16.68;nan
44349;BME280;30068;50.986;4.564;2023-03-14T09:25:24;99717.34;;;16.63;nan
44349;BME280;30068;50.986;4.564;2023-03-14T09:27:49;99725.88;;;16.52;nan
44349;BME280;30068;50.986;4.564;2023-03-14T09:30:14;99741.19;;;16.51;nan
44349;BME280;30068;50.986;4.564;2023-03-14T09:32:39;99754.09;;;16.56;nan
44349;BME280;30068;50.986;4.564;2023-03-14T09:35:05;99762.75;;;16.51;nan
44349;BME280;30068;50.986;4.564;2023-03-14T09:37:30;99768.53;;;16.48;nan
44349;BME280;30068;50.986;4.564;2023-03-14T09:39:55;99770.19;;;16.49;nan
44349;BME280;30068;50.986;4.564;2023-03-14T09:42:25;99775.66;;;16.56;nan
44349;BME280;30068;50.986;4.564;2023-03-14T09:44:56;99782.34;;;16.60;nan
44349;BME280;30068;50.986;4.564;2023-03-14T09:47:22;99792.94;;;16.47;nan
44349;BME280;30068;50.986;4.564;2023-03-14T09:49:48;99804.03;;;16.58;nan
44349;BME280;30068;50.986;4.564;2023-03-14T09:52:24;99815.78;;;16.51;nan
44349;BME280;30068;50.986;4.564;2023-03-14T09:54:52;99815.78;;;16.51;nan
44349;BME280;30068;50.986;4.564;2023-03-14T09:57:20;99833.16;;;16.48;nan
44349;BME280;30068;50.986;4.564;2023-03-14T09:59:46;99840.03;;;16.51;nan
44349;BME280;30068;50.986;4.564;2023-03-14T10:02:14;99865.00;;;16.45;nan
44349;BME280;30068;50.986;4.564;2023-03-14T10:04:40;99855.91;;;16.46;nan
44349;BME280;30068;50.986;4.564;2023-03-14T10:07:11;99867.59;;;16.38;nan
44349;BME280;30068;50.986;4.564;2023-03-14T10:09:39;99866.31;;;16.49;nan
44349;BME280;30068;50.986;4.564;2023-03-14T10:12:07;99880.88;;;16.40;nan
44349;BME280;30068;50.986;4.564;2023-03-14T10:14:34;99895.00;;;16.27;nan
44349;BME280;30068;50.986;4.564;2023-03-14T10:17:10;99907.81;;;16.25;nan
44349;BME280;30068;50.986;4.564;2023-03-14T10:19:35;99922.69;;;16.36;nan
44349;BME280;30068;50.986;4.564;2023-03-14T10:22:01;99926.22;;;16.36;nan
44349;BME280;30068;50.986;4.564;2023-03-14T10:24:29;99938.66;;;16.37;nan
44349;BME280;30068;50.986;4.564;2023-03-14T10:26:55;99949.22;;;16.39;nan
44349;BME280;30068;50.986;4.564;2023-03-14T10:29:23;99958.50;;;16.36;nan
44349;BME280;30068;50.986;4.564;2023-03-14T10:31:56;99966.28;;;16.31;nan
44349;BME280;30068;50.986;4.564;2023-03-14T10:34:44;99980.97;;;16.29;nan
44349;BME280;30068;50.986;4.564;2023-03-14T10:39:47;100003.16;;;16.31;nan
44349;BME280;30068;50.986;4.564;2023-03-14T10:44:39;100020.69;;;16.27;nan
44349;BME280;30068;50.986;4.564;2023-03-14T10:47:04;100019.66;;;16.28;nan
44349;BME280;30068;50.986;4.564;2023-03-14T10:49:36;100026.75;;;16.29;nan
44349;BME280;30068;50.986;4.564;2023-03-14T10:52:11;100035.16;;;16.26;nan
44349;BME280;30068;50.986;4.564;2023-03-14T10:54:37;100057.00;;;16.31;nan
44349;BME280;30068;50.986;4.564;2023-03-14T10:57:03;100062.25;;;16.24;nan
44349;BME280;30068;50.986;4.564;2023-03-14T10:59:32;100070.44;;;16.16;nan
44349;BME280;30068;50.986;4.564;2023-03-14T11:02:01;100085.25;;;16.12;nan
44349;BME280;30068;50.986;4.564;2023-03-14T11:07:47;100098.41;;;16.07;nan
44349;BME280;30068;50.986;4.564;2023-03-14T11:12:55;100117.03;;;16.16;nan
44349;BME280;30068;50.986;4.564;2023-03-14T11:18:14;100127.84;;;16.08;nan
44349;BME280;30068;50.986;4.564;2023-03-14T11:20:45;100138.44;;;16.10;nan
44349;BME280;30068;50.986;4.564;2023-03-14T11:23:23;100150.44;;;15.99;nan
44349;BME280;30068;50.986;4.564;2023-03-14T11:28:26;100160.84;;;16.02;nan
44349;BME280;30068;50.986;4.564;2023-03-14T11:30:57;100158.47;;;16.07;nan
44349;BME280;30068;50.986;4.564;2023-03-14T11:36:37;100172.59;;;16.09;nan
44349;BME280;30068;50.986;4.564;2023-03-14T11:39:00;100182.00;;;16.05;nan
44349;BME280;30068;50.986;4.564;2023-03-14T11:43:53;100187.81;;;15.94;nan
44349;BME280;30068;50.986;4.564;2023-03-14T11:49:08;100186.78;;;15.95;nan
44349;BME280;30068;50.986;4.564;2023-03-14T11:51:35;100204.63;;;15.96;nan
44349;BME280;30068;50.986;4.564;2023-03-14T11:56:51;100213.03;;;15.93;nan
44349;BME280;30068;50.986;4.564;2023-03-14T11:59:19;100217.72;;;15.99;nan
44349;BME280;30068;50.986;4.564;2023-03-14T12:04:18;100226.81;;;15.90;nan
44349;BME280;30068;50.986;4.564;2023-03-14T12:06:49;100233.69;;;16.01;nan
44349;BME280;30068;50.986;4.564;2023-03-14T12:09:14;100236.53;;;15.99;nan
44349;BME280;30068;50.986;4.564;2023-03-14T12:11:54;100241.31;;;15.89;nan
44349;BME280;30068;50.986;4.564;2023-03-14T12:14:25;100255.25;;;15.93;nan
44349;BME280;30068;50.986;4.564;2023-03-14T12:17:25;100274.28;;;16.22;nan
44349;BME280;30068;50.986;4.564;2023-03-14T12:19:42;100286.19;;;16.28;nan
44349;BME280;30068;50.986;4.564;2023-03-14T12:24:36;100285.22;;;16.20;nan
44349;BME280;30068;50.986;4.564;2023-03-14T12:27:03;100284.56;;;16.18;nan
44349;BME280;30068;50.986;4.564;2023-03-14T12:29:29;100293.88;;;16.08;nan
44349;BME280;30068;50.986;4.564;2023-03-14T12:34:26;100295.88;;;16.06;nan
44349;BME280;30068;50.986;4.564;2023-03-14T12:37:06;100307.03;;;16.03;nan
44349;BME280;30068;50.986;4.564;2023-03-14T12:42:01;100312.72;;;16.00;nan
44349;BME280;30068;50.986;4.564;2023-03-14T12:49:53;100325.19;;;16.01;nan
44349;BME280;30068;50.986;4.564;2023-03-14T12:52:27;100327.06;;;15.92;nan
44349;BME280;30068;50.986;4.564;2023-03-14T12:55:00;100327.22;;;15.91;nan
44349;BME280;30068;50.986;4.564;2023-03-14T13:00:17;100335.34;;;15.83;nan
44349;BME280;30068;50.986;4.564;2023-03-14T13:02:44;100338.50;;;15.86;nan
44349;BME280;30068;50.986;4.564;2023-03-14T13:05:14;100341.88;;;15.88;nan
44349;BME280;30068;50.986;4.564;2023-03-14T13:13:03;100408.75;;;16.07;nan
44349;BME280;30068;50.986;4.564;2023-03-14T13:15:40;100388.53;;;16.11;nan
44349;BME280;30068;50.986;4.564;2023-03-14T13:18:10;100391.38;;;16.18;nan
44349;BME280;30068;50.986;4.564;2023-03-14T13:20:36;100400.03;;;15.97;nan
44349;BME280;30068;50.986;4.564;2023-03-14T13:23:03;100404.75;;;15.87;nan
44349;BME280;30068;50.986;4.564;2023-03-14T13:25:29;100412.50;;;15.82;nan
44349;BME280;30068;50.986;4.564;2023-03-14T13:27:55;100415.16;;;15.90;nan
44349;BME280;30068;50.986;4.564;2023-03-14T13:30:35;100421.75;;;15.96;nan
44349;BME280;30068;50.986;4.564;2023-03-14T13:33:04;100418.84;;;15.97;nan
44349;BME280;30068;50.986;4.564;2023-03-14T13:35:30;100438.38;;;15.91;nan
44349;BME280;30068;50.986;4.564;2023-03-14T13:38:02;100447.13;;;15.85;nan
44349;BME280;30068;50.986;4.564;2023-03-14T13:40:31;100445.81;;;15.89;nan
44349;BME280;30068;50.986;4.564;2023-03-14T13:43:11;100452.19;;;15.80;nan
44349;BME280;30068;50.986;4.564;2023-03-14T13:45:43;100459.75;;;15.93;nan
44349;BME280;30068;50.986;4.564;2023-03-14T13:48:09;100461.44;;;15.86;nan
44349;BME280;30068;50.986;4.564;2023-03-14T13:50:36;100472.88;;;15.88;nan
44349;BME280;30068;50.986;4.564;2023-03-14T13:53:01;100467.66;;;15.86;nan
44349;BME280;30068;50.986;4.564;2023-03-14T13:55:26;100468.66;;;15.77;nan
44349;BME280;30068;50.986;4.564;2023-03-14T13:57:54;100479.09;;;15.80;nan
44349;BME280;30068;50.986;4.564;2023-03-14T14:00:23;100487.84;;;15.82;nan
44349;BME280;30068;50.986;4.564;2023-03-14T14:02:52;100492.53;;;15.80;nan
44349;BME280;30068;50.986;4.564;2023-03-14T14:05:18;100502.31;;;15.81;nan
44349;BME280;30068;50.986;4.564;2023-03-14T14:07:43;100500.09;;;15.85;nan
44349;BME280;30068;50.986;4.564;2023-03-14T14:10:10;100515.22;;;15.77;nan
44349;BME280;30068;50.986;4.564;2023-03-14T14:12:37;100521.78;;;15.83;nan
44349;BME280;30068;50.986;4.564;2023-03-14T14:15:05;100530.19;;;15.72;nan